Time;durP1;ratioP1;P1;durP2;ratioP2;P2;SDS_P1;SDS_P2;PMS_P1;PMS_P2;Temp;Humidity;BMP_temperature;BMP_pressure;BME280_temperature;BME280_humidity;BME280_pressure;Samples;Min_cycle;Max_cycle;Signal;HPM_P1;HPM_P2
2022/04/15 00:01:09;;;;;;;9.90;5.97;;;8.40;99.90;;;;;;5169070;27;20034;-76
2022/04/15 00:03:35;;;;;;;12.30;6.70;;;8.40;99.90;;;;;;5149693;27;20444;-75
2022/04/15 00:06:00;;;;;;;14.90;6.93;;;8.40;99.90;;;;;;5129675;27;20060;-75
2022/04/15 00:08:26;;;;;;;11.18;6.05;;;8.40;99.90;;;;;;5163907;27;20086;-75
2022/04/15 00:10:52;;;;;;;10.32;6.18;;;8.40;99.90;;;;;;5147292;27;20034;-75
2022/04/15 00:13:24;;;;;;;9.95;6.28;;;8.40;99.90;;;;;;5131923;27;20171;-75
2022/04/15 00:15:51;;;;;;;12.00;6.43;;;8.50;99.90;;;;;;5136864;27;20046;-76
2022/04/15 00:18:17;;;;;;;10.80;6.43;;;8.50;99.90;;;;;;5133374;27;20038;-76
2022/04/15 00:20:42;;;;;;;12.02;5.90;;;8.50;99.90;;;;;;5142169;27;20110;-76
2022/04/15 00:23:08;;;;;;;8.35;5.78;;;8.50;99.90;;;;;;5143753;27;20069;-76
2022/04/15 00:25:34;;;;;;;9.40;6.50;;;8.60;99.90;;;;;;5137760;27;20457;-76
2022/04/15 00:27:59;;;;;;;11.77;5.43;;;8.60;99.90;;;;;;5144773;27;20762;-75
2022/04/15 00:30:25;;;;;;;8.15;5.72;;;8.60;99.90;;;;;;5144300;27;20030;-76
2022/04/15 00:32:51;;;;;;;12.93;6.03;;;8.60;99.90;;;;;;5136907;27;20074;-76
2022/04/15 00:35:17;;;;;;;9.90;6.05;;;8.60;99.90;;;;;;5136172;27;20038;-75
2022/04/15 00:37:42;;;;;;;10.98;5.80;;;8.60;99.90;;;;;;5144377;27;20034;-76
2022/04/15 00:40:10;;;;;;;12.53;6.13;;;8.60;99.90;;;;;;5144324;27;20367;-76
2022/04/15 00:42:36;;;;;;;11.60;5.97;;;8.60;99.90;;;;;;5124917;27;20449;-76
2022/04/15 00:45:02;;;;;;;9.40;5.75;;;8.70;99.90;;;;;;5149724;27;20042;-76
2022/04/15 00:47:37;;;;;;;9.63;5.90;;;8.70;99.90;;;;;;5139832;27;20099;-76
2022/04/15 00:50:04;;;;;;;12.75;6.05;;;8.70;99.90;;;;;;5139362;27;20046;-76
2022/04/15 00:52:39;;;;;;;15.25;6.40;;;8.70;99.90;;;;;;5121844;27;20035;-76
2022/04/15 00:55:05;;;;;;;13.65;6.50;;;8.70;99.90;;;;;;5146384;27;20045;-76
2022/04/15 00:57:33;;;;;;;13.07;6.47;;;8.70;99.90;;;;;;5121845;27;20483;-76
2022/04/15 01:00:01;;;;;;;11.02;6.78;;;8.80;99.90;;;;;;5123212;27;20030;-76
2022/04/15 01:02:28;;;;;;;12.55;6.82;;;8.80;99.90;;;;;;5143314;27;20063;-76
2022/04/15 01:04:56;;;;;;;11.68;6.68;;;8.80;99.90;;;;;;5140929;27;20038;-76
2022/04/15 01:07:25;;;;;;;12.40;6.20;;;8.70;99.90;;;;;;5166705;27;20037;-76
2022/04/15 01:09:52;;;;;;;14.07;7.13;;;8.80;99.90;;;;;;5143263;27;20099;-76
2022/04/15 01:12:20;;;;;;;14.43;6.32;;;8.80;99.90;;;;;;5123393;27;20094;-76
2022/04/15 01:14:47;;;;;;;11.45;5.95;;;8.80;99.90;;;;;;5148499;27;20038;-75
2022/04/15 01:17:13;;;;;;;10.65;6.60;;;8.80;99.90;;;;;;5139935;27;20126;-76
2022/04/15 01:19:38;;;;;;;15.02;6.32;;;8.80;99.90;;;;;;5139130;27;20117;-76
2022/04/15 01:22:11;;;;;;;10.82;6.13;;;8.80;99.90;;;;;;5136017;27;20030;-76
2022/04/15 01:24:38;;;;;;;10.15;5.40;;;8.90;99.90;;;;;;5125260;27;20046;-75
2022/04/15 01:27:07;;;;;;;10.82;5.68;;;8.80;99.90;;;;;;5139050;27;20075;-75
2022/04/15 01:29:40;;;;;;;12.60;5.57;;;8.80;99.90;;;;;;5139257;27;20042;-76
2022/04/15 01:32:07;;;;;;;7.05;5.43;;;8.80;99.90;;;;;;5140598;27;20479;-75
2022/04/15 01:34:34;;;;;;;8.05;5.72;;;8.90;99.90;;;;;;5140213;27;20046;-76
2022/04/15 01:37:00;;;;;;;;;;;8.90;99.90;;;;;;5143750;27;20042;-75
2022/04/15 01:39:27;;;;;;;12.68;5.47;;;9.00;99.90;;;;;;5148128;27;20422;-75
2022/04/15 01:41:53;;;;;;;10.10;5.20;;;9.00;99.90;;;;;;5140414;27;20050;-76
2022/04/15 01:44:19;;;;;;;8.80;4.38;;;9.10;99.90;;;;;;5141416;27;20054;-76
2022/04/15 01:46:46;;;;;;;7.17;4.07;;;9.00;99.90;;;;;;5122249;27;20103;-75
2022/04/15 01:49:12;;;;;;;7.32;3.67;;;9.10;99.90;;;;;;5123390;27;21034;-76
2022/04/15 01:51:37;;;;;;;6.60;3.70;;;9.10;99.90;;;;;;5143252;27;20133;-76
2022/04/15 01:54:04;;;;;;;7.93;3.38;;;9.10;99.90;;;;;;5143413;27;20062;-75
2022/04/15 01:56:29;;;;;;;7.72;3.88;;;9.10;99.90;;;;;;5139050;27;20043;-76
2022/04/15 01:58:55;;;;;;;6.53;3.45;;;9.10;99.90;;;;;;5143502;27;20107;-76
2022/04/15 02:01:21;;;;;;;7.57;3.77;;;9.10;99.90;;;;;;5138200;27;20432;-76
2022/04/15 02:03:46;;;;;;;7.63;3.73;;;9.10;99.90;;;;;;5141037;27;20367;-75
2022/04/15 02:06:12;;;;;;;8.80;4.00;;;9.20;99.90;;;;;;5146946;27;20283;-76
2022/04/15 02:08:38;;;;;;;11.20;4.30;;;9.10;99.90;;;;;;5125939;27;20070;-76
2022/04/15 02:11:04;;;;;;;9.05;4.25;;;9.00;99.90;;;;;;5141010;27;20125;-75
2022/04/15 02:13:29;;;;;;;11.37;4.80;;;9.20;99.90;;;;;;5147740;27;20055;-75
2022/04/15 02:15:55;;;;;;;12.57;4.88;;;9.00;99.90;;;;;;5124666;27;20629;-75
2022/04/15 02:18:21;;;;;;;12.00;4.23;;;9.00;99.90;;;;;;5142114;27;20374;-75
2022/04/15 02:20:46;;;;;;;10.50;4.77;;;9.00;99.90;;;;;;5154750;27;20380;-75
2022/04/15 02:23:12;;;;;;;9.93;5.88;;;9.10;99.90;;;;;;5129804;27;20047;-75
2022/04/15 02:25:38;;;;;;;12.98;4.57;;;9.10;99.90;;;;;;5148219;27;20397;-76
2022/04/15 02:28:03;;;;;;;15.10;5.60;;;9.10;99.90;;;;;;5136420;27;20504;-76
2022/04/15 02:30:29;;;;;;;11.63;5.32;;;9.00;99.90;;;;;;5148328;27;20035;-75
2022/04/15 02:32:55;;;;;;;13.23;5.10;;;9.10;99.90;;;;;;5146418;27;20051;-76
2022/04/15 02:35:20;;;;;;;12.80;5.00;;;9.10;99.90;;;;;;5127013;27;20284;-76
2022/04/15 02:37:46;;;;;;;11.77;5.50;;;9.10;99.90;;;;;;5138161;27;20787;-76
2022/04/15 02:40:12;;;;;;;9.40;5.47;;;9.10;99.90;;;;;;5125218;27;20050;-76
2022/04/15 02:42:38;;;;;;;11.68;5.20;;;9.20;99.90;;;;;;5132828;27;20041;-76
2022/04/15 02:45:04;;;;;;;15.52;6.22;;;9.10;99.90;;;;;;5141246;27;20037;-76
2022/04/15 02:47:30;;;;;;;;;;;9.10;99.90;;;;;;5143845;27;20056;-75
2022/04/15 02:49:55;;;;;;;12.38;5.95;;;9.10;99.90;;;;;;5146218;27;19915;-75
2022/04/15 02:52:21;;;;;;;11.43;6.18;;;9.10;99.90;;;;;;5148704;27;20500;-76
2022/04/15 02:54:47;;;;;;;12.45;6.13;;;9.00;99.90;;;;;;5146617;27;20046;-76
2022/04/15 02:57:13;;;;;;;14.63;6.80;;;9.10;99.90;;;;;;5131236;27;20045;-75
2022/04/15 02:59:39;;;;;;;15.65;8.43;;;9.00;99.90;;;;;;5148121;27;20113;-76
2022/04/15 03:02:05;;;;;;;15.27;8.87;;;9.00;99.90;;;;;;5143547;27;20500;-76
2022/04/15 03:04:30;;;;;;;17.83;9.00;;;9.00;99.90;;;;;;5150607;27;20282;-76
2022/04/15 03:06:56;;;;;;;12.73;8.47;;;8.90;99.90;;;;;;5133655;27;20042;-75
2022/04/15 03:09:22;;;;;;;15.60;9.52;;;8.90;99.90;;;;;;5145273;27;20101;-76
2022/04/15 03:11:48;;;;;;;16.27;9.47;;;8.80;99.90;;;;;;5136061;27;20121;-75
2022/04/15 03:14:16;;;;;;;13.80;8.80;;;8.70;99.90;;;;;;5142483;27;20364;-75
2022/04/15 03:16:42;;;;;;;12.63;8.70;;;8.70;99.90;;;;;;5145629;27;20065;-76
2022/04/15 03:19:08;;;;;;;12.02;8.65;;;8.70;99.90;;;;;;5135793;27;20034;-75
2022/04/15 03:21:35;;;;;;;10.68;8.32;;;8.60;99.90;;;;;;5143360;27;20041;-75
2022/04/15 03:24:02;;;;;;;10.95;7.53;;;8.70;99.90;;;;;;5140759;27;20042;-76
2022/04/15 03:26:28;;;;;;;;;;;8.70;99.90;;;;;;5123429;27;20473;-76
2022/04/15 03:28:53;;;;;;;9.35;6.88;;;8.70;99.90;;;;;;5145704;27;19915;-76
2022/04/15 03:31:19;;;;;;;9.68;6.65;;;8.60;99.90;;;;;;5143316;27;20429;-76
2022/04/15 03:33:45;;;;;;;8.20;6.10;;;8.60;99.90;;;;;;5146763;27;20049;-75
2022/04/15 03:36:12;;;;;;;7.95;5.25;;;8.50;99.90;;;;;;5142860;27;20039;-75
2022/04/15 03:38:38;;;;;;;6.20;4.82;;;8.50;99.90;;;;;;5149623;27;20038;-76
2022/04/15 03:41:04;;;;;;;7.35;5.35;;;8.40;99.90;;;;;;5142681;27;20470;-75
2022/04/15 03:43:30;;;;;;;8.02;5.53;;;8.30;99.90;;;;;;5119586;27;20103;-75
2022/04/15 03:45:56;;;;;;;8.82;5.18;;;8.30;99.90;;;;;;5137442;27;20039;-76
2022/04/15 03:48:22;;;;;;;7.50;5.40;;;8.40;99.90;;;;;;5136912;27;20554;-74
2022/04/15 03:50:47;;;;;;;5.57;4.67;;;8.30;99.90;;;;;;5147182;27;20069;-75
2022/04/15 03:53:13;;;;;;;5.53;4.03;;;8.30;99.90;;;;;;5145182;27;20315;-75
2022/04/15 03:55:39;;;;;;;5.13;3.90;;;8.40;99.90;;;;;;5150909;27;20093;-75
2022/04/15 03:58:04;;;;;;;6.47;3.67;;;8.20;99.90;;;;;;5148032;27;20066;-76
2022/04/15 04:00:30;;;;;;;4.63;3.33;;;8.20;99.90;;;;;;5137834;27;20137;-75
2022/04/15 04:02:56;;;;;;;4.13;3.23;;;8.10;99.90;;;;;;5147588;27;20315;-75
2022/04/15 04:05:23;;;;;;;4.85;3.00;;;8.10;99.90;;;;;;5142207;27;20030;-75
2022/04/15 04:07:49;;;;;;;4.53;3.60;;;8.20;99.90;;;;;;5145059;27;20053;-75
2022/04/15 04:10:15;;;;;;;4.65;3.70;;;8.20;99.90;;;;;;5143011;27;20038;-76
2022/04/15 04:12:42;;;;;;;5.50;3.75;;;8.30;99.90;;;;;;5144108;27;20049;-76
2022/04/15 04:15:09;;;;;;;5.82;3.90;;;8.20;99.90;;;;;;5142113;27;20477;-76
2022/04/15 04:17:35;;;;;;;5.43;3.95;;;8.20;99.90;;;;;;5122226;27;20026;-75
2022/04/15 04:20:02;;;;;;;7.50;3.83;;;8.20;99.90;;;;;;5123477;27;20156;-76
2022/04/15 04:22:35;;;;;;;5.30;3.58;;;8.20;99.90;;;;;;5143406;27;20046;-75
2022/04/15 04:25:01;;;;;;;6.95;4.25;;;8.30;99.90;;;;;;5141116;27;20039;-75
2022/04/15 04:27:26;;;;;;;4.57;3.50;;;8.30;99.90;;;;;;5141657;27;20137;-76
2022/04/15 04:29:52;;;;;;;5.53;3.58;;;8.20;99.90;;;;;;5144286;27;20222;-77
2022/04/15 04:32:19;;;;;;;5.93;3.13;;;8.10;99.90;;;;;;5141444;27;20047;-76
2022/04/15 04:34:45;;;;;;;6.03;3.53;;;8.00;99.90;;;;;;5138608;27;20747;-75
2022/04/15 04:37:11;;;;;;;8.00;2.90;;;8.00;99.90;;;;;;5136048;27;20383;-77
2022/04/15 04:39:37;;;;;;;3.50;2.92;;;8.00;99.90;;;;;;5126320;27;20045;-76
2022/04/15 04:42:03;;;;;;;4.13;3.30;;;8.00;99.90;;;;;;5142998;27;20035;-76
2022/04/15 04:44:31;;;;;;;5.68;3.67;;;8.10;99.90;;;;;;5144953;27;20046;-75
2022/04/15 04:46:58;;;;;;;5.28;3.47;;;8.10;99.90;;;;;;5133781;27;20074;-76
2022/04/15 04:49:24;;;;;;;5.63;3.60;;;8.10;99.90;;;;;;5145870;27;20062;-76
2022/04/15 04:51:50;;;;;;;4.78;2.95;;;8.10;99.90;;;;;;5140806;27;20103;-77
2022/04/15 04:54:16;;;;;;;6.65;3.60;;;8.10;99.90;;;;;;5134991;27;20038;-77
2022/04/15 04:56:42;;;;;;;4.60;3.20;;;8.00;99.90;;;;;;5128411;27;20057;-77
2022/04/15 04:59:07;;;;;;;4.90;3.47;;;7.90;99.90;;;;;;5166905;27;20110;-77
2022/04/15 05:01:33;;;;;;;5.63;3.57;;;7.90;99.90;;;;;;5152944;27;20034;-77
2022/04/15 05:03:59;;;;;;;8.68;3.55;;;8.00;99.90;;;;;;5153160;27;20065;-77
2022/04/15 05:06:24;;;;;;;8.47;3.63;;;7.90;99.90;;;;;;5145632;27;20091;-77
2022/04/15 05:08:50;;;;;;;4.83;3.30;;;8.00;99.90;;;;;;5114328;27;20283;-77
2022/04/15 05:11:16;;;;;;;5.65;3.80;;;7.90;99.90;;;;;;5132555;27;20046;-77
2022/04/15 05:13:42;;;;;;;4.35;3.15;;;7.90;99.90;;;;;;5133571;27;20034;-78
2022/04/15 05:16:07;;;;;;;7.15;3.40;;;7.80;99.90;;;;;;5133870;27;20038;-77
2022/04/15 05:18:34;;;;;;;3.60;3.20;;;7.80;99.90;;;;;;5132026;27;20042;-77
2022/04/15 05:21:00;;;;;;;7.53;3.50;;;7.80;99.90;;;;;;5115426;27;20098;-78
2022/04/15 05:23:26;;;;;;;6.80;4.32;;;7.80;99.90;;;;;;5131943;27;20034;-77
2022/04/15 05:25:52;;;;;;;7.45;4.07;;;7.80;99.90;;;;;;5144828;27;20055;-77
2022/04/15 05:28:18;;;;;;;6.22;4.05;;;7.80;99.90;;;;;;5132854;27;20039;-77
2022/04/15 05:30:44;;;;;;;9.77;4.35;;;7.80;99.90;;;;;;5130310;27;20030;-77
2022/04/15 05:33:09;;;;;;;7.22;4.22;;;7.90;99.90;;;;;;5132383;27;20042;-77
2022/04/15 05:35:35;;;;;;;8.23;4.30;;;7.90;99.90;;;;;;5114607;27;20054;-77
2022/04/15 05:38:01;;;;;;;6.63;3.42;;;8.00;99.90;;;;;;5145697;27;20379;-77
2022/04/15 05:40:28;;;;;;;7.47;3.45;;;7.90;99.90;;;;;;5135774;27;20070;-77
2022/04/15 05:42:54;;;;;;;5.97;4.30;;;7.80;99.90;;;;;;5135871;27;20478;-77
2022/04/15 05:45:20;;;;;;;6.72;4.43;;;7.80;99.90;;;;;;5153430;27;20030;-77
2022/04/15 05:47:45;;;;;;;6.37;4.60;;;7.80;99.90;;;;;;5145213;27;20037;-77
2022/04/15 05:50:11;;;;;;;5.43;4.30;;;7.80;99.90;;;;;;5136177;27;20272;-77
2022/04/15 05:52:37;;;;;;;7.47;4.93;;;7.90;99.90;;;;;;5135505;27;20446;-77
2022/04/15 05:55:03;;;;;;;6.88;4.78;;;7.90;99.90;;;;;;5149794;27;20439;-77
2022/04/15 05:57:29;;;;;;;10.05;5.40;;;7.90;99.90;;;;;;5139857;27;20062;-77
2022/04/15 05:59:55;;;;;;;7.85;4.88;;;7.90;99.90;;;;;;5135952;27;20080;-76
2022/04/15 06:02:21;;;;;;;7.17;5.10;;;7.90;99.90;;;;;;5118984;27;20046;-76
2022/04/15 06:04:48;;;;;;;10.13;5.35;;;8.00;99.90;;;;;;5133463;27;20034;-76
2022/04/15 06:07:13;;;;;;;;;;;8.00;99.90;;;;;;5136371;27;20050;-78
2022/04/15 06:09:39;;;;;;;7.32;5.00;;;8.00;99.90;;;;;;5118191;27;20374;-77
2022/04/15 06:12:05;;;;;;;7.73;5.50;;;8.00;99.90;;;;;;5118484;27;20122;-77
2022/04/15 06:14:33;;;;;;;6.25;5.15;;;8.10;99.90;;;;;;5135453;27;20038;-77
2022/04/15 06:16:59;;;;;;;8.40;5.63;;;8.10;99.90;;;;;;5133232;27;20416;-77
2022/04/15 06:19:25;;;;;;;8.98;6.35;;;8.20;99.90;;;;;;5135180;27;20042;-77
2022/04/15 06:21:51;;;;;;;9.05;5.78;;;8.30;99.90;;;;;;5118115;27;20095;-77
2022/04/15 06:24:17;;;;;;;10.30;5.90;;;8.30;99.90;;;;;;5135471;27;20042;-77
2022/04/15 06:26:42;;;;;;;10.85;6.85;;;8.30;99.90;;;;;;5134983;27;20035;-77
2022/04/15 06:29:08;;;;;;;11.88;6.60;;;8.30;99.90;;;;;;5135318;27;20122;-77
2022/04/15 06:31:34;;;;;;;12.20;7.67;;;8.40;99.90;;;;;;5134963;27;20035;-76
2022/04/15 06:33:59;;;;;;;9.60;7.20;;;8.40;99.90;;;;;;5135167;27;20089;-77
2022/04/15 06:36:25;;;;;;;10.82;7.75;;;8.40;99.90;;;;;;5132528;27;20281;-77
2022/04/15 06:38:51;;;;;;;11.33;7.93;;;8.50;99.90;;;;;;5138449;27;20026;-77
2022/04/15 06:41:17;;;;;;;13.93;8.10;;;8.50;99.90;;;;;;5156096;27;20034;-77
2022/04/15 06:43:43;;;;;;;15.25;8.23;;;8.40;99.90;;;;;;5138082;27;20039;-78
2022/04/15 06:46:08;;;;;;;14.30;8.23;;;8.40;99.90;;;;;;5155646;27;20045;-77
2022/04/15 06:48:34;;;;;;;13.00;7.75;;;8.70;99.90;;;;;;5155150;27;20041;-77
2022/04/15 06:51:01;;;;;;;14.87;8.40;;;8.50;99.90;;;;;;5135064;27;20034;-78
2022/04/15 06:53:27;;;;;;;14.32;8.60;;;8.60;99.90;;;;;;5135234;27;20046;-77
2022/04/15 06:55:53;;;;;;;16.25;9.32;;;8.60;99.90;;;;;;5139382;27;20076;-77
2022/04/15 06:58:19;;;;;;;16.30;9.50;;;8.60;99.90;;;;;;5149674;27;20159;-77
2022/04/15 07:00:48;;;;;;;16.30;9.07;;;8.70;99.90;;;;;;5134340;27;20041;-77
2022/04/15 07:03:15;;;;;;;16.02;8.38;;;8.70;99.90;;;;;;5134668;27;20073;-77
2022/04/15 07:05:41;;;;;;;15.48;8.68;;;8.70;99.90;;;;;;5134255;27;20031;-77
2022/04/15 07:08:11;;;;;;;14.23;8.60;;;8.70;99.90;;;;;;5134852;27;20050;-77
2022/04/15 07:10:37;;;;;;;12.50;8.55;;;8.70;99.90;;;;;;5115732;27;20053;-77
2022/04/15 07:13:04;;;;;;;15.80;8.25;;;8.70;99.90;;;;;;5134504;27;20045;-76
2022/04/15 07:15:29;;;;;;;14.93;8.55;;;8.60;99.90;;;;;;5134633;27;20042;-77
2022/04/15 07:17:59;;;;;;;22.23;8.85;;;8.70;99.90;;;;;;5116911;27;20541;-76
2022/04/15 07:20:25;;;;;;;15.05;8.70;;;8.70;99.90;;;;;;5134869;27;20505;-76
2022/04/15 07:22:56;;;;;;;19.52;8.45;;;8.70;99.90;;;;;;5134264;27;20043;-76
2022/04/15 07:25:22;;;;;;;16.95;8.40;;;8.80;99.90;;;;;;5133933;27;20030;-76
2022/04/15 07:27:47;;;;;;;15.90;8.00;;;8.80;99.90;;;;;;5133199;27;20049;-76
2022/04/15 07:30:13;;;;;;;16.38;7.78;;;8.80;99.90;;;;;;5133309;27;20106;-76
2022/04/15 07:32:39;;;;;;;11.63;7.75;;;8.90;99.90;;;;;;5133075;27;20134;-77
2022/04/15 07:35:05;;;;;;;16.00;8.27;;;8.90;99.90;;;;;;5163894;27;20448;-77
2022/04/15 07:37:31;;;;;;;14.25;8.05;;;9.10;99.90;;;;;;5133647;27;20109;-77
2022/04/15 07:39:57;;;;;;;11.43;7.13;;;9.10;99.90;;;;;;5136325;27;20113;-77
2022/04/15 07:42:22;;;;;;;15.98;6.80;;;9.20;99.90;;;;;;5119077;27;20034;-76
2022/04/15 07:44:48;;;;;;;10.63;5.73;;;9.30;99.90;;;;;;5131179;27;20501;-77
2022/04/15 07:47:15;;;;;;;9.17;6.10;;;9.30;99.90;;;;;;5133697;27;20042;-77
2022/04/15 07:49:41;;;;;;;12.32;6.38;;;9.30;99.90;;;;;;5133326;27;20278;-77
2022/04/15 07:52:08;;;;;;;8.60;5.00;;;9.30;99.90;;;;;;5133935;27;20038;-78
2022/04/15 07:54:34;;;;;;;11.65;5.45;;;9.40;99.90;;;;;;5133890;27;20087;-76
2022/04/15 07:57:00;;;;;;;10.98;6.20;;;9.20;99.90;;;;;;5133225;27;20099;-77
2022/04/15 07:59:27;;;;;;;12.57;6.07;;;9.20;99.90;;;;;;5134149;27;20063;-76
2022/04/15 08:01:53;;;;;;;10.73;5.55;;;9.30;99.90;;;;;;5131438;27;20034;-77
2022/04/15 08:04:19;;;;;;;13.82;5.68;;;9.20;99.90;;;;;;5118627;27;20502;-76
2022/04/15 08:06:45;;;;;;;13.70;5.85;;;9.20;99.90;;;;;;5136648;27;20042;-76
2022/04/15 08:09:11;;;;;;;12.27;5.70;;;9.30;99.90;;;;;;5154274;27;20042;-76
2022/04/15 08:11:36;;;;;;;11.15;6.07;;;9.40;99.90;;;;;;5136452;27;20510;-77
2022/04/15 08:14:02;;;;;;;11.27;6.00;;;9.30;99.90;;;;;;5153576;27;20138;-76
2022/04/15 08:16:28;;;;;;;11.93;6.18;;;9.40;99.90;;;;;;5154088;27;20042;-76
2022/04/15 08:18:56;;;;;;;11.88;6.53;;;9.60;99.90;;;;;;5153711;27;20086;-77
2022/04/15 08:21:22;;;;;;;12.02;5.90;;;9.70;99.90;;;;;;5120940;27;20405;-76
2022/04/15 08:23:48;;;;;;;11.32;5.78;;;9.90;99.90;;;;;;5151338;27;20030;-76
2022/04/15 08:26:14;;;;;;;13.60;5.95;;;9.90;99.90;;;;;;5130718;27;20471;-77
2022/04/15 08:28:40;;;;;;;11.57;5.50;;;10.10;99.90;;;;;;5151618;27;20027;-77
2022/04/15 08:31:07;;;;;;;10.50;5.30;;;10.20;99.90;;;;;;5116271;27;20484;-77
2022/04/15 08:33:34;;;;;;;9.75;5.35;;;10.20;99.90;;;;;;5133186;27;20073;-77
2022/04/15 08:35:59;;;;;;;;;;;10.20;99.90;;;;;;5134380;27;20031;-77
2022/04/15 08:38:26;;;;;;;11.73;5.63;;;10.10;99.90;;;;;;5132007;27;20002;-76
2022/04/15 08:40:56;;;;;;;9.50;5.25;;;10.30;99.90;;;;;;5132747;27;20117;-77
2022/04/15 08:43:24;;;;;;;8.73;5.07;;;10.50;99.90;;;;;;5147849;27;20445;-77
2022/04/15 08:45:50;;;;;;;9.63;4.82;;;10.40;99.90;;;;;;5136480;27;20078;-77
2022/04/15 08:48:16;;;;;;;6.93;4.20;;;10.60;99.90;;;;;;5153935;27;20038;-77
2022/04/15 08:50:42;;;;;;;9.80;4.15;;;10.50;99.90;;;;;;5153710;27;20038;-77
2022/04/15 08:53:08;;;;;;;9.13;4.95;;;10.50;99.90;;;;;;5153722;27;20030;-77
2022/04/15 08:55:34;;;;;;;8.52;4.82;;;10.60;99.90;;;;;;5138672;27;20041;-77
2022/04/15 08:58:00;;;;;;;8.60;4.75;;;10.60;99.90;;;;;;5132699;27;20114;-77
2022/04/15 09:00:27;;;;;;;10.15;5.03;;;10.50;99.90;;;;;;5132925;27;20549;-76
2022/04/15 09:02:55;;;;;;;7.90;4.85;;;10.60;99.90;;;;;;5132447;27;20068;-76
2022/04/15 09:05:26;;;;;;;8.05;4.60;;;10.80;99.90;;;;;;5132929;27;20043;-76
2022/04/15 09:08:08;;;;;;;7.40;4.43;;;11.20;99.90;;;;;;5132652;27;20447;-76
2022/04/15 09:10:35;;;;;;;9.25;4.43;;;11.90;99.90;;;;;;5132028;27;20118;-77
2022/04/15 09:13:03;;;;;;;6.95;4.32;;;12.40;99.90;;;;;;5132609;27;20042;-77
2022/04/15 09:15:29;;;;;;;8.73;4.57;;;13.20;99.90;;;;;;5116117;27;20681;-77
2022/04/15 09:17:55;;;;;;;10.00;4.75;;;13.30;99.90;;;;;;5132378;27;20482;-77
2022/04/15 09:20:22;;;;;;;6.97;4.35;;;13.40;99.90;;;;;;5133077;27;20027;-77
2022/04/15 09:22:53;;;;;;;5.57;3.65;;;13.60;99.90;;;;;;5134148;27;20045;-77
2022/04/15 09:25:24;;;;;;;7.35;3.65;;;13.20;99.90;;;;;;5119968;27;20078;-77
2022/04/15 09:27:54;;;;;;;6.85;3.75;;;13.40;99.90;;;;;;5136055;27;20034;-77
2022/04/15 09:30:35;;;;;;;7.65;4.20;;;13.50;99.90;;;;;;5134524;27;20031;-78
2022/04/15 09:33:02;;;;;;;6.30;3.53;;;13.30;99.90;;;;;;5136791;27;20494;-77
2022/04/15 09:35:28;;;;;;;7.50;4.30;;;13.30;99.90;;;;;;5116139;27;20079;-77
2022/04/15 09:37:57;;;;;;;9.63;4.63;;;13.30;99.90;;;;;;5133027;27;20039;-78
2022/04/15 09:40:26;;;;;;;7.57;4.03;;;13.30;99.90;;;;;;5116180;27;20042;-77
2022/04/15 09:42:54;;;;;;;7.85;4.18;;;12.80;99.90;;;;;;5129962;27;20118;-77
2022/04/15 09:45:29;;;;;;;8.25;4.55;;;12.50;99.90;;;;;;5133354;27;20066;-78
2022/04/15 09:48:03;;;;;;;5.72;4.07;;;12.30;99.90;;;;;;5115629;27;20049;-78
2022/04/15 09:50:38;;;;;;;6.93;4.60;;;12.00;99.90;;;;;;5116077;27;20068;-76
2022/04/15 09:53:12;;;;;;;9.18;5.40;;;12.00;99.90;;;;;;5132797;27;20131;-76
2022/04/15 09:55:40;;;;;;;7.95;4.88;;;12.10;99.90;;;;;;5134561;27;20023;-76
2022/04/15 09:58:14;;;;;;;10.45;5.20;;;12.40;99.90;;;;;;5131946;27;20104;-77
2022/04/15 10:00:42;;;;;;;7.78;4.90;;;12.30;99.90;;;;;;5131150;27;20114;-77
2022/04/15 10:03:14;;;;;;;10.18;5.40;;;12.30;99.90;;;;;;5132393;27;20081;-77
2022/04/15 10:05:42;;;;;;;7.30;4.85;;;12.20;99.90;;;;;;5133485;27;20486;-77
2022/04/15 10:08:09;;;;;;;9.63;5.55;;;12.00;99.90;;;;;;5132375;27;20116;-75
2022/04/15 10:10:36;;;;;;;10.27;5.22;;;11.80;99.90;;;;;;5115773;27;20027;-77
2022/04/15 10:13:04;;;;;;;7.57;5.30;;;12.00;99.90;;;;;;5115195;27;20057;-76
2022/04/15 10:15:33;;;;;;;8.50;4.90;;;11.90;99.90;;;;;;5127830;27;20043;-77
2022/04/15 10:18:01;;;;;;;10.95;5.13;;;11.90;99.90;;;;;;5098419;27;20070;-77
2022/04/15 10:20:28;;;;;;;7.70;5.20;;;11.80;99.90;;;;;;5132697;27;20035;-76
2022/04/15 10:22:59;;;;;;;9.70;5.30;;;11.80;99.90;;;;;;5131940;27;20118;-77
2022/04/15 10:25:26;;;;;;;9.95;6.00;;;11.60;99.90;;;;;;5132618;27;20035;-76
2022/04/15 10:27:51;;;;;;;9.63;5.63;;;11.60;99.90;;;;;;5131946;27;20043;-76
2022/04/15 10:30:19;;;;;;;8.93;5.53;;;11.50;99.90;;;;;;5132452;27;20035;-77
2022/04/15 10:32:57;;;;;;;9.00;5.63;;;11.50;99.90;;;;;;5127697;27;20499;-77
2022/04/15 10:35:28;;;;;;;8.73;5.05;;;11.30;99.90;;;;;;5114783;27;20048;-76
2022/04/15 10:38:01;;;;;;;5.97;4.10;;;11.30;99.90;;;;;;5123611;27;20039;-77
2022/04/15 10:40:34;;;;;;;8.30;4.65;;;11.20;99.90;;;;;;5130554;27;20382;-77
2022/04/15 10:43:21;;;;;;;10.15;5.10;;;11.10;99.90;;;;;;5131654;27;20552;-77
2022/04/15 10:45:48;;;;;;;8.88;4.53;;;11.40;99.90;;;;;;5115036;27;20039;-77
2022/04/15 10:48:27;;;;;;;;;;;11.50;99.90;;;;;;5132048;27;20054;-77
2022/04/15 10:50:53;;;;;;;7.25;4.30;;;11.40;99.90;;;;;;5131328;27;19915;-77
2022/04/15 10:53:30;;;;;;;9.35;5.00;;;11.60;99.90;;;;;;5114136;27;20035;-77
2022/04/15 10:56:07;;;;;;;8.20;4.88;;;11.60;99.90;;;;;;5106951;27;20031;-76
2022/04/15 11:01:13;;;;;;;6.97;4.78;;;11.60;99.90;;;;;;5130374;27;20051;-77
2022/04/15 11:01:35;;;;;;;8.05;4.80;;;11.60;99.90;;;;;;5130258;27;20122;-77
2022/04/15 11:04:05;;;;;;;6.72;4.68;;;11.50;99.90;;;;;;5125843;27;20138;-76
2022/04/15 11:06:31;;;;;;;8.50;5.20;;;11.50;99.90;;;;;;5125041;27;20082;-76
2022/04/15 11:09:11;;;;;;;10.57;5.15;;;11.40;99.90;;;;;;5130229;27;20066;-77
2022/04/15 11:11:40;;;;;;;9.30;5.47;;;11.50;99.90;;;;;;5128066;27;20035;-77
2022/04/15 11:14:08;;;;;;;9.60;4.93;;;11.40;99.90;;;;;;5129349;27;20385;-77
2022/04/15 11:16:48;;;;;;;7.70;4.75;;;11.50;99.90;;;;;;5123348;27;20368;-77
2022/04/15 11:19:21;;;;;;;6.75;4.35;;;11.60;99.90;;;;;;5130300;27;20047;-78
2022/04/15 11:21:50;;;;;;;8.13;4.55;;;11.60;99.90;;;;;;5113728;27;20074;-77
2022/04/15 11:24:25;;;;;;;8.63;5.13;;;11.60;99.90;;;;;;5130411;27;20039;-76
2022/04/15 11:26:57;;;;;;;6.55;4.55;;;11.40;99.90;;;;;;5126978;27;20038;-77
2022/04/15 11:29:28;;;;;;;6.60;5.30;;;11.20;99.90;;;;;;5113751;27;20039;-76
2022/04/15 11:32:04;;;;;;;7.03;4.60;;;11.10;99.90;;;;;;5130703;27;20397;-76
2022/04/15 11:34:30;;;;;;;9.13;5.30;;;11.10;99.90;;;;;;5130927;27;20562;-76
2022/04/15 11:37:05;;;;;;;6.78;4.65;;;11.20;99.90;;;;;;5113546;27;20118;-76
2022/04/15 11:39:35;;;;;;;10.63;5.60;;;11.30;99.90;;;;;;5130752;27;20103;-77
2022/04/15 11:42:05;;;;;;;9.93;5.63;;;11.50;99.90;;;;;;5130250;27;20125;-77
2022/04/15 11:44:32;;;;;;;7.90;5.28;;;11.40;99.90;;;;;;5129616;27;20046;-77
2022/04/15 11:47:15;;;;;;;8.05;5.22;;;11.40;99.90;;;;;;5121881;27;20066;-77
2022/04/15 11:49:42;;;;;;;8.93;5.50;;;11.40;99.90;;;;;;5123194;27;20096;-77
2022/04/15 11:52:09;;;;;;;8.30;4.95;;;11.40;99.90;;;;;;5121239;27;20128;-76
2022/04/15 11:54:38;;;;;;;8.63;5.05;;;11.50;99.90;;;;;;5126136;27;20039;-77
2022/04/15 11:57:06;;;;;;;8.50;4.90;;;11.50;99.90;;;;;;5125673;27;20046;-76
2022/04/15 11:59:39;;;;;;;8.75;5.43;;;11.30;99.90;;;;;;5125310;27;20561;-77
2022/04/15 12:02:06;;;;;;;9.52;5.22;;;11.30;99.90;;;;;;5127624;27;20027;-78
2022/04/15 12:04:31;;;;;;;8.27;5.25;;;11.40;99.90;;;;;;5128588;27;20043;-77
2022/04/15 12:06:57;;;;;;;8.50;5.37;;;11.50;99.90;;;;;;5103406;27;20057;-78
2022/04/15 12:09:25;;;;;;;7.80;5.10;;;11.30;99.90;;;;;;5129908;27;20042;-77
2022/04/15 12:11:51;;;;;;;8.45;5.30;;;11.20;99.90;;;;;;5108027;27;20043;-77
2022/04/15 12:14:18;;;;;;;7.78;4.80;;;11.40;99.90;;;;;;5130270;27;20441;-77
2022/04/15 12:16:44;;;;;;;;;;;11.40;99.90;;;;;;5130979;27;20035;-76
2022/04/15 12:19:10;;;;;;;7.97;5.53;;;11.40;99.90;;;;;;5128368;27;19934;-76
2022/04/15 12:21:36;;;;;;;7.93;5.63;;;11.50;99.90;;;;;;5130530;27;20047;-77
2022/04/15 12:24:19;;;;;;;7.20;5.25;;;11.50;99.90;;;;;;5130157;27;20337;-76
2022/04/15 12:26:50;;;;;;;8.07;5.20;;;11.50;99.90;;;;;;5130342;27;20035;-77
2022/04/15 12:32:20;;;;;;;9.70;5.60;;;11.50;99.90;;;;;;5129320;27;20083;-76
2022/04/15 12:34:47;;;;;;;7.60;5.53;;;11.20;99.90;;;;;;5129705;27;20051;-76
2022/04/15 12:37:37;;;;;;;8.10;5.53;;;11.20;99.90;;;;;;5125871;27;20066;-77
2022/04/15 12:40:15;;;;;;;9.63;5.80;;;11.30;99.90;;;;;;5126078;27;20115;-77
2022/04/15 12:42:42;;;;;;;10.07;5.88;;;11.40;99.90;;;;;;5130152;27;20121;-77
2022/04/15 12:45:21;;;;;;;9.40;5.55;;;11.30;99.90;;;;;;5129231;27;20043;-76
2022/04/15 12:48:01;;;;;;;11.05;5.53;;;11.30;99.90;;;;;;5130140;27;20479;-77
2022/04/15 12:50:33;;;;;;;10.93;5.80;;;11.10;99.90;;;;;;5112576;27;20491;-77
2022/04/15 12:53:00;;;;;;;8.18;5.38;;;11.10;99.90;;;;;;5129788;27;20042;-77
2022/04/15 12:55:29;;;;;;;9.88;5.70;;;11.10;99.90;;;;;;5129366;27;20078;-77